Time;durP1;ratioP1;P1;durP2;ratioP2;P2;SDS_P1;SDS_P2;PMS_P1;PMS_P2;Temp;Humidity;BMP_temperature;BMP_pressure;BME280_temperature;BME280_humidity;BME280_pressure;Samples;Min_cycle;Max_cycle;Signal;HPM_P1;HPM_P2
2022/05/30 00:01:40;;;;;;;;;;;2.90;99.90;;;;;;5074093;28;19909;-74
2022/05/30 00:04:06;;;;;;;;;;;2.90;99.90;;;;;;5073784;28;20486;-74
2022/05/30 00:06:31;;;;;;;;;;;2.90;99.90;;;;;;5074536;28;19919;-74
2022/05/30 00:08:57;;;;;;;;;;;2.90;99.90;;;;;;5074300;28;19908;-74
2022/05/30 00:11:22;;;;;;;;;;;2.90;99.90;;;;;;5073603;28;19948;-74
2022/05/30 00:13:48;;;;;;;;;;;2.80;99.90;;;;;;5073575;28;20021;-74
2022/05/30 00:16:15;;;;;;;;;;;2.70;99.90;;;;;;5074404;28;19908;-74
2022/05/30 00:18:40;;;;;;;;;;;2.60;99.90;;;;;;5072943;28;19916;-74
2022/05/30 00:21:06;;;;;;;;;;;2.50;99.90;;;;;;5074450;28;20277;-73
2022/05/30 00:23:31;;;;;;;;;;;2.40;99.90;;;;;;5085504;28;19908;-73
2022/05/30 00:25:57;;;;;;;;;;;2.30;99.90;;;;;;5081370;28;19998;-74
2022/05/30 00:28:22;;;;;;;;;;;2.30;99.90;;;;;;5074048;28;19954;-74
2022/05/30 00:30:49;;;;;;;;;;;2.40;99.90;;;;;;5074163;28;20000;-73
2022/05/30 00:33:14;;;;;;;;;;;2.40;99.90;;;;;;5072997;28;20335;-74
2022/05/30 00:35:40;;;;;;;;;;;2.40;99.90;;;;;;5073998;28;19909;-74
2022/05/30 00:38:06;;;;;;;;;;;2.40;99.90;;;;;;5073817;28;19916;-74
2022/05/30 00:40:32;;;;;;;;;;;2.40;99.90;;;;;;5093166;28;20281;-73
2022/05/30 00:43:17;;;;;;;;;;;2.40;99.90;;;;;;5092618;28;19998;-73
2022/05/30 00:45:42;;;;;;;;;;;2.40;99.90;;;;;;5093208;28;19912;-73
2022/05/30 00:48:08;;;;;;;;;;;2.20;99.90;;;;;;5093254;28;19914;-73
2022/05/30 00:50:34;;;;;;;;;;;2.20;99.90;;;;;;5092989;28;20345;-74
2022/05/30 00:53:00;;;;;;;;;;;2.20;99.90;;;;;;5084992;28;19908;-73
2022/05/30 00:55:25;;;;;;;;;;;2.30;99.90;;;;;;5076778;28;19915;-73
2022/05/30 00:57:51;;;;;;;;;;;2.30;99.90;;;;;;5073338;28;19916;-73
2022/05/30 01:00:18;;;;;;;;;;;2.40;99.90;;;;;;5072435;28;19908;-74
2022/05/30 01:02:44;;;;;;;;;;;2.40;99.90;;;;;;5072649;28;19908;-74
2022/05/30 01:07:57;;;;;;;;;;;2.30;99.90;;;;;;5073240;28;19982;-74
2022/05/30 01:10:23;;;;;;;;;;;2.20;99.90;;;;;;5072839;28;19916;-73
2022/05/30 01:12:52;;;;;;;;;;;2.10;99.90;;;;;;5072376;28;19919;-73
2022/05/30 01:15:19;;;;;;;;;;;2.10;99.90;;;;;;5072500;28;20047;-73
2022/05/30 01:17:54;;;;;;;;;;;2.10;99.90;;;;;;5072837;28;19916;-74
2022/05/30 01:20:24;;;;;;;;;;;2.10;99.90;;;;;;5078984;28;20366;-73
2022/05/30 01:22:50;;;;;;;;;;;2.10;99.90;;;;;;5083910;28;20387;-73
2022/05/30 01:25:16;;;;;;;;;;;2.10;99.90;;;;;;5070790;28;19913;-73
2022/05/30 01:28:01;;;;;;;;;;;2.10;99.90;;;;;;5077940;28;20031;-73
2022/05/30 01:30:27;;;;;;;;;;;2.10;99.90;;;;;;5092432;28;19908;-73
2022/05/30 01:32:58;;;;;;;;;;;2.10;99.90;;;;;;5091578;28;19958;-73
2022/05/30 01:35:25;;;;;;;;;;;2.00;99.90;;;;;;5091609;28;19985;-73
2022/05/30 01:37:51;;;;;;;;;;;1.90;99.90;;;;;;5072586;28;20007;-73
2022/05/30 01:40:16;;;;;;;;;;;1.90;99.90;;;;;;5091777;28;19951;-73
2022/05/30 01:42:42;;;;;;;;;;;2.00;99.90;;;;;;5091242;28;20353;-73
2022/05/30 01:45:08;;;;;;;;;;;2.00;99.90;;;;;;5091101;28;19912;-73
2022/05/30 01:47:34;;;;;;;;;;;2.10;99.90;;;;;;5091822;28;19912;-73
2022/05/30 01:49:59;;;;;;;;;;;2.00;99.90;;;;;;5089564;28;19922;-73
2022/05/30 01:52:25;;;;;;;;;;;2.00;99.90;;;;;;5077764;28;19913;-73
2022/05/30 01:54:50;;;;;;;;;;;2.00;99.90;;;;;;5071509;28;19908;-73
2022/05/30 01:57:16;;;;;;;;;;;2.00;99.90;;;;;;5072040;28;19909;-73
2022/05/30 01:59:41;;;;;;;;;;;2.00;99.90;;;;;;5082410;28;19912;-73
2022/05/30 02:02:08;;;;;;;;;;;1.90;99.90;;;;;;5073943;28;19912;-73
2022/05/30 02:04:34;;;;;;;;;;;2.00;99.90;;;;;;5071417;28;19912;-73
2022/05/30 02:06:59;;;;;;;;;;;2.10;99.90;;;;;;5072217;28;19916;-72
2022/05/30 02:09:24;;;;;;;;;;;2.20;99.90;;;;;;5072251;28;20183;-73
2022/05/30 02:11:50;;;;;;;;;;;2.10;99.90;;;;;;5071221;28;20289;-73
2022/05/30 02:14:16;;;;;;;;;;;2.10;99.90;;;;;;5071420;28;19915;-73
2022/05/30 02:19:25;;;;;;;;;;;2.30;99.90;;;;;;5071661;28;19919;-73
2022/05/30 02:21:51;;;;;;;;;;;2.30;99.90;;;;;;5071388;28;19916;-73
2022/05/30 02:24:16;;;;;;;;;;;2.30;99.90;;;;;;5070983;28;19912;-73
2022/05/30 02:26:42;;;;;;;;;;;2.30;99.90;;;;;;5072159;28;19908;-73
2022/05/30 02:29:07;;;;;;;;;;;2.40;99.90;;;;;;5080598;28;19963;-73
2022/05/30 02:31:33;;;;;;;;;;;2.30;99.90;;;;;;5078866;28;19913;-72
2022/05/30 02:36:44;;;;;;;;;;;2.00;99.90;;;;;;5071613;28;20015;-73
2022/05/30 02:39:20;;;;;;;;;;;2.00;99.90;;;;;;5070347;28;19909;-73
2022/05/30 02:41:46;;;;;;;;;;;2.00;99.90;;;;;;5084028;28;19919;-73
2022/05/30 02:44:12;;;;;;;;;;;2.00;99.90;;;;;;5090212;28;19912;-73
2022/05/30 02:46:37;;;;;;;;;;;2.10;99.90;;;;;;5090887;28;20289;-73
2022/05/30 02:49:03;;;;;;;;;;;2.20;99.90;;;;;;5071440;28;19909;-73
2022/05/30 02:51:29;;;;;;;;;;;2.20;99.90;;;;;;5070917;28;19912;-73
2022/05/30 02:53:55;;;;;;;;;;;2.20;99.90;;;;;;5070788;28;19908;-73
2022/05/30 02:56:20;;;;;;;;;;;2.10;99.90;;;;;;5071136;28;20358;-73
2022/05/30 02:58:46;;;;;;;;;;;2.10;99.90;;;;;;5091183;28;19908;-73
2022/05/30 03:01:11;;;;;;;;;;;2.10;99.90;;;;;;5072296;28;20357;-73
2022/05/30 03:03:37;;;;;;;;;;;2.00;99.90;;;;;;5088756;28;19908;-72
2022/05/30 03:06:03;;;;;;;;;;;2.00;99.90;;;;;;5090297;28;19912;-73
2022/05/30 03:08:28;;;;;;;;;;;2.00;99.90;;;;;;5090696;28;19998;-73
2022/05/30 03:10:54;;;;;;;;;;;1.90;99.90;;;;;;5086557;28;19914;-73
2022/05/30 03:13:20;;;;;;;;;;;1.90;99.90;;;;;;5074985;28;19909;-73
2022/05/30 03:15:45;;;;;;;;;;;2.00;99.90;;;;;;5071187;28;19917;-73
2022/05/30 03:18:11;;;;;;;;;;;2.00;99.90;;;;;;5071221;28;19913;-73
2022/05/30 03:20:36;;;;;;;;;;;2.00;99.90;;;;;;5070983;28;19956;-73
2022/05/30 03:23:02;;;;;;;;;;;2.00;99.90;;;;;;5069361;28;19982;-73
2022/05/30 03:25:27;;;;;;;;;;;1.90;99.90;;;;;;5070201;28;20343;-72
2022/05/30 03:27:53;;;;;;;;;;;1.90;99.90;;;;;;5075914;28;20375;-73
2022/05/30 03:30:19;;;;;;;;;;;1.90;99.90;;;;;;5093879;28;19915;-73
2022/05/30 03:32:44;;;;;;;;;;;1.80;99.90;;;;;;5074574;28;19956;-73
2022/05/30 03:35:11;;;;;;;;;;;1.80;99.90;;;;;;5074313;28;20372;-73
2022/05/30 03:37:37;;;;;;;;;;;1.80;99.90;;;;;;5075231;28;19916;-73
2022/05/30 03:40:07;;;;;;;;;;;1.80;99.90;;;;;;5074607;28;19932;-73
2022/05/30 03:42:33;;;;;;;;;;;1.60;99.90;;;;;;5074533;28;19909;-73
2022/05/30 03:44:58;;;;;;;;;;;1.60;99.90;;;;;;5074286;28;19912;-73
2022/05/30 03:47:24;;;;;;;;;;;1.70;99.90;;;;;;5074826;28;19915;-74
2022/05/30 03:49:49;;;;;;;;;;;1.60;99.90;;;;;;5074734;28;20357;-73
2022/05/30 03:52:15;;;;;;;;;;;1.60;99.90;;;;;;5074288;28;19951;-73
2022/05/30 03:54:41;;;;;;;;;;;1.60;99.90;;;;;;5073794;28;19909;-73
2022/05/30 03:57:06;;;;;;;;;;;1.70;99.90;;;;;;5087437;28;19908;-73
2022/05/30 03:59:31;;;;;;;;;;;1.70;99.90;;;;;;5076304;28;19908;-73
2022/05/30 04:01:57;;;;;;;;;;;1.70;99.90;;;;;;5079511;28;19931;-73
2022/05/30 04:04:22;;;;;;;;;;;1.70;99.90;;;;;;5073616;28;19916;-73
2022/05/30 04:06:48;;;;;;;;;;;1.70;99.90;;;;;;5074283;28;19913;-73
2022/05/30 04:09:13;;;;;;;;;;;1.80;99.90;;;;;;5074245;28;20596;-74
2022/05/30 04:11:39;;;;;;;;;;;1.80;99.90;;;;;;5073479;28;19915;-73
2022/05/30 04:14:04;;;;;;;;;;;1.90;99.90;;;;;;5073586;28;19934;-74
2022/05/30 04:16:30;;;;;;;;;;;1.80;99.90;;;;;;5074244;28;19909;-73
2022/05/30 04:18:55;;;;;;;;;;;1.90;99.90;;;;;;5072703;28;20258;-73
2022/05/30 04:21:22;;;;;;;;;;;1.90;99.90;;;;;;5073470;28;19912;-73
2022/05/30 04:23:47;;;;;;;;;;;2.00;99.90;;;;;;5073099;28;19908;-74
2022/05/30 04:26:15;;;;;;;;;;;2.10;99.90;;;;;;5073788;28;20388;-74
2022/05/30 04:28:40;;;;;;;;;;;2.10;99.90;;;;;;5090385;28;20396;-74
2022/05/30 04:31:06;;;;;;;;;;;2.20;99.90;;;;;;5080061;28;19908;-73
2022/05/30 04:33:33;;;;;;;;;;;2.20;99.90;;;;;;5079416;28;20353;-73
2022/05/30 04:35:58;;;;;;;;;;;2.30;99.90;;;;;;5072542;28;19904;-73
2022/05/30 04:38:24;;;;;;;;;;;2.40;99.90;;;;;;5073902;28;20384;-73
2022/05/30 04:40:49;;;;;;;;;;;2.40;99.90;;;;;;5072494;28;20350;-74
2022/05/30 04:43:15;;;;;;;;;;;2.40;99.90;;;;;;5072628;28;19912;-73
2022/05/30 04:45:40;;;;;;;;;;;2.50;99.90;;;;;;5073716;28;19912;-73
2022/05/30 04:48:06;;;;;;;;;;;2.60;99.90;;;;;;5073661;28;19919;-74
2022/05/30 04:50:31;;;;;;;;;;;2.70;99.90;;;;;;5073763;28;20365;-74
2022/05/30 04:52:57;;;;;;;;;;;2.80;99.90;;;;;;5080456;28;19920;-74
2022/05/30 04:55:22;;;;;;;;;;;3.00;99.90;;;;;;5092199;28;19908;-74
2022/05/30 04:57:49;;;;;;;;;;;3.20;99.90;;;;;;5085867;28;19966;-74
2022/05/30 05:00:16;;;;;;;;;;;3.30;99.90;;;;;;5091212;28;20383;-74
2022/05/30 05:02:41;;;;;;;;;;;3.50;99.90;;;;;;5072834;28;19912;-74
2022/05/30 05:05:07;;;;;;;;;;;3.60;99.90;;;;;;5072642;28;19912;-74
2022/05/30 05:07:35;;;;;;;;;;;3.70;99.90;;;;;;5073419;28;20281;-74
2022/05/30 05:10:02;;;;;;;;;;;3.90;99.90;;;;;;5073264;28;20001;-74
2022/05/30 05:12:28;;;;;;;;;;;4.00;99.90;;;;;;5072786;28;19909;-74
2022/05/30 05:14:53;;;;;;;;;;;4.20;99.90;;;;;;5072603;28;19961;-74
2022/05/30 05:17:21;;;;;;;;;;;4.30;99.90;;;;;;5072949;28;19920;-74
2022/05/30 05:19:46;;;;;;;;;;;4.50;99.90;;;;;;5072932;28;19913;-74
2022/05/30 05:22:13;;;;;;;;;;;4.60;99.90;;;;;;5072262;28;20453;-74
2022/05/30 05:24:39;;;;;;;;;;;4.70;99.90;;;;;;5072130;28;19920;-74
2022/05/30 05:27:05;;;;;;;;;;;4.80;99.90;;;;;;5075998;28;20374;-74
2022/05/30 05:29:31;;;;;;;;;;;5.00;99.90;;;;;;5077377;28;19947;-74
2022/05/30 05:31:57;;;;;;;;;;;5.10;99.90;;;;;;5077764;28;19967;-74
2022/05/30 05:34:23;;;;;;;;;;;5.20;99.90;;;;;;5091473;28;19908;-74
2022/05/30 05:36:48;;;;;;;;;;;5.50;99.90;;;;;;5091952;28;20384;-75
2022/05/30 05:39:15;;;;;;;;;;;5.60;99.90;;;;;;5092117;28;19908;-75
2022/05/30 05:41:42;;;;;;;;;;;6.10;99.90;;;;;;5091346;28;19909;-75
2022/05/30 05:44:07;;;;;;;;;;;7.30;99.90;;;;;;5091251;28;19919;-74
2022/05/30 05:46:33;;;;;;;;;;;8.30;99.90;;;;;;5091843;28;19908;-75
2022/05/30 05:48:59;;;;;;;;;;;8.00;99.90;;;;;;5091828;28;19908;-75
2022/05/30 05:51:25;;;;;;;;;;;8.20;99.90;;;;;;5091303;28;20526;-75
2022/05/30 05:53:52;;;;;;;;;;;8.80;99.90;;;;;;5089841;28;19915;-75
2022/05/30 05:56:19;;;;;;;;;;;8.30;99.90;;;;;;5091497;28;19923;-75
2022/05/30 05:58:44;;;;;;;;;;;9.70;99.90;;;;;;5094310;28;19955;-75
2022/05/30 06:01:11;;;;;;;;;;;10.50;99.90;;;;;;5073800;28;20008;-75
2022/05/30 06:03:37;;;;;;;;;;;10.30;99.90;;;;;;5071372;28;19909;-75
2022/05/30 06:06:03;;;;;;;;;;;9.70;99.90;;;;;;5070818;28;20305;-75
2022/05/30 06:08:28;;;;;;;;;;;9.00;99.90;;;;;;5072328;28;19999;-75
2022/05/30 06:11:08;;;;;;;;;;;9.10;99.90;;;;;;5070670;28;19959;-74
2022/05/30 06:13:52;;;;;;;;;;;8.50;99.90;;;;;;5070901;28;19908;-75
2022/05/30 06:16:28;;;;;;;;;;;8.20;99.90;;;;;;5072163;28;19915;-75
2022/05/30 06:18:54;;;;;;;;;;;8.40;99.90;;;;;;5072056;28;19975;-75
2022/05/30 06:21:21;;;;;;;;;;;10.20;99.90;;;;;;5071399;28;20392;-75
2022/05/30 06:23:48;;;;;;;;;;;11.60;99.90;;;;;;5071318;28;19912;-75
2022/05/30 06:26:13;;;;;;;;;;;12.30;99.90;;;;;;5071598;28;19955;-75
2022/05/30 06:28:39;;;;;;;;;;;13.00;99.90;;;;;;5073241;28;19940;-76
2022/05/30 06:31:09;;;;;;;;;;;13.20;99.40;;;;;;5080507;28;19919;-76
2022/05/30 06:33:35;;;;;;;;;;;13.30;95.00;;;;;;5070958;28;19915;-75
2022/05/30 06:36:01;;;;;;;;;;;13.20;97.00;;;;;;5070376;28;19909;-75
2022/05/30 06:38:27;;;;;;;;;;;11.70;97.90;;;;;;5086035;28;19908;-75
2022/05/30 06:40:52;;;;;;;;;;;10.60;99.90;;;;;;5090815;28;20429;-75
2022/05/30 06:43:18;;;;;;;;;;;11.50;99.90;;;;;;5078710;28;19908;-75
2022/05/30 06:45:46;;;;;;;;;;;12.80;99.80;;;;;;5070744;28;19963;-76
2022/05/30 06:48:12;;;;;;;;;;;13.40;97.90;;;;;;5081019;28;19909;-75
2022/05/30 06:50:37;;;;;;;;;;;13.10;98.10;;;;;;5073190;28;19909;-76
2022/05/30 06:53:03;;;;;;;;;;;13.70;97.10;;;;;;5069036;28;19912;-76
2022/05/30 06:55:30;;;;;;;;;;;14.30;95.70;;;;;;5073761;28;19967;-76
2022/05/30 06:58:13;;;;;;;;;;;14.70;95.50;;;;;;5081233;28;20428;-76
2022/05/30 07:00:39;;;;;;;;;;;14.90;93.50;;;;;;5078595;28;20366;-76
2022/05/30 07:03:05;;;;;;;;;;;14.50;94.30;;;;;;5071558;28;19916;-76
2022/05/30 07:05:30;;;;;;;;;;;14.90;94.70;;;;;;5079316;28;20007;-76
2022/05/30 07:07:56;;;;;;;;;;;15.40;92.30;;;;;;5075100;28;19909;-76
2022/05/30 07:10:22;;;;;;;;;;;15.00;93.30;;;;;;5076236;28;19917;-76
2022/05/30 07:12:47;;;;;;;;;;;15.10;92.20;;;;;;5079015;28;19916;-76
2022/05/30 07:15:13;;;;;;;;;;;15.20;91.50;;;;;;5087662;28;19908;-76
2022/05/30 07:17:38;;;;;;;;;;;16.10;92.40;;;;;;5082216;28;19936;-76
2022/05/30 07:20:04;;;;;;;;;;;16.60;90.90;;;;;;5073522;28;19958;-76
2022/05/30 07:22:30;;;;;;;;;;;16.30;87.50;;;;;;5074007;28;20007;-73
2022/05/30 07:24:55;;;;;;;;;;;15.80;88.00;;;;;;5085384;28;19986;-76
2022/05/30 07:27:20;;;;;;;;;;;15.90;87.80;;;;;;5083886;28;19943;-76
2022/05/30 07:29:46;;;;;;;;;;;15.90;87.20;;;;;;5083782;28;20327;-78
2022/05/30 07:32:11;;;;;;;;;;;16.20;89.40;;;;;;5074607;28;19909;-76
2022/05/30 07:34:37;;;;;;;;;;;16.40;90.10;;;;;;5074221;28;19916;-76
2022/05/30 07:37:03;;;;;;;;;;;16.90;87.50;;;;;;5074984;28;20007;-76
2022/05/30 07:39:28;;;;;;;;;;;17.20;83.80;;;;;;5074673;28;19909;-76
2022/05/30 07:41:54;;;;;;;;;;;17.70;87.10;;;;;;5074258;28;19908;-76
2022/05/30 07:44:19;;;;;;;;;;;17.90;83.70;;;;;;5077951;28;19924;-76
2022/05/30 07:46:45;;;;;;;;;;;17.50;82.60;;;;;;5081886;28;19912;-75
2022/05/30 07:49:11;;;;;;;;;;;17.60;81.00;;;;;;5077322;28;19908;-75
2022/05/30 07:51:37;;;;;;;;;;;17.90;83.70;;;;;;5074151;28;19916;-76
2022/05/30 07:54:02;;;;;;;;;;;18.80;82.40;;;;;;5074073;28;20416;-75
2022/05/30 07:56:28;;;;;;;;;;;17.70;84.70;;;;;;5074723;28;19909;-76
2022/05/30 07:58:53;;;;;;;;;;;17.70;82.10;;;;;;5080927;28;19995;-75
2022/05/30 08:01:20;;;;;;;;;;;17.90;79.70;;;;;;5082717;28;20363;-75
2022/05/30 08:03:46;;;;;;;;;;;16.20;84.60;;;;;;5085332;28;19995;-75
2022/05/30 08:06:13;;;;;;;;;;;17.10;80.10;;;;;;5092536;28;19951;-75
2022/05/30 08:08:39;;;;;;;;;;;17.90;80.80;;;;;;5093498;28;19908;-76
2022/05/30 08:11:04;;;;;;;;;;;15.40;80.50;;;;;;5093389;28;20331;-75
2022/05/30 08:13:30;;;;;;;;;;;14.30;90.80;;;;;;5092676;28;19908;-76
2022/05/30 08:15:56;;;;;;;;;;;16.50;82.30;;;;;;5081534;28;20225;-76
2022/05/30 08:18:21;;;;;;;;;;;18.20;78.20;;;;;;5081041;28;19915;-76
2022/05/30 08:20:47;;;;;;;;;;;18.90;74.50;;;;;;5093519;28;19952;-76
2022/05/30 08:23:12;;;;;;;;;;;18.90;78.00;;;;;;5092736;28;20361;-76
2022/05/30 08:25:38;;;;;;;;;;;19.30;74.20;;;;;;5093089;28;19912;-76
2022/05/30 08:28:03;;;;;;;;;;;18.10;73.80;;;;;;5094466;28;19908;-76
2022/05/30 08:30:29;;;;;;;;;;;17.70;70.50;;;;;;5075531;28;19908;-76
2022/05/30 08:32:54;;;;;;;;;;;17.70;71.30;;;;;;5073158;28;19916;-76
2022/05/30 08:35:22;;;;;;;;;;;18.40;74.90;;;;;;5093140;28;20007;-76
2022/05/30 08:37:48;;;;;;;;;;;18.40;71.40;;;;;;5085878;28;20321;-76
2022/05/30 08:43:13;;;;;;;;;;;20.70;67.30;;;;;;5076198;28;19915;-76
2022/05/30 08:45:39;;;;;;;;;;;20.60;69.70;;;;;;5093192;28;19923;-76
2022/05/30 08:48:11;;;;;;;;;;;20.60;65.20;;;;;;5076546;28;19916;-76
2022/05/30 08:50:57;;;;;;;;;;;20.70;63.30;;;;;;5073154;28;19908;-76
2022/05/30 08:53:22;;;;;;;;;;;20.70;69.40;;;;;;5084676;28;19908;-76
2022/05/30 08:55:54;;;;;;;;;;;21.60;60.30;;;;;;5092453;28;20320;-76
2022/05/30 08:58:33;;;;;;;;;;;21.40;63.20;;;;;;5084674;28;20003;-76
2022/05/30 09:01:10;;;;;;;;;;;21.00;60.20;;;;;;5080234;28;19916;-76
2022/05/30 09:03:41;;;;;;;;;;;21.30;66.00;;;;;;5072164;28;19916;-76
2022/05/30 09:06:27;;;;;;;;;;;22.10;66.00;;;;;;5073189;28;20007;-76
2022/05/30 09:08:55;;;;;;;;;;;21.30;65.80;;;;;;5079516;28;20363;-76
2022/05/30 09:11:32;;;;;;;;;;;21.70;63.30;;;;;;5085376;28;20357;-76
2022/05/30 09:14:00;;;;;;;;;;;20.80;61.00;;;;;;5078377;28;20094;-76
2022/05/30 09:16:28;;;;;;;;;;;21.00;63.80;;;;;;5090320;28;19912;-76
2022/05/30 09:18:55;;;;;;;;;;;21.50;65.00;;;;;;5075475;28;19954;-76
2022/05/30 09:21:21;;;;;;;;;;;20.80;60.40;;;;;;5073257;28;22103;-76
2022/05/30 09:23:47;;;;;;;;;;;20.80;59.00;;;;;;5071925;28;19909;-76
2022/05/30 09:26:36;;;;;;;;;;;20.40;66.70;;;;;;5076292;28;19919;-76
2022/05/30 09:29:06;;;;;;;;;;;18.60;62.20;;;;;;5075140;28;19915;-76
2022/05/30 09:31:35;;;;;;;;;;;18.80;60.20;;;;;;5081071;28;19913;-76
2022/05/30 09:34:21;;;;;;;;;;;19.60;74.00;;;;;;5070526;28;19916;-76
2022/05/30 09:36:49;;;;;;;;;;;20.30;62.90;;;;;;5085209;28;20292;-76
2022/05/30 09:39:16;;;;;;;;;;;21.10;62.90;;;;;;5083883;28;20380;-76
2022/05/30 09:41:41;;;;;;;;;;;18.60;58.10;;;;;;5071271;28;19940;-76
2022/05/30 09:44:07;;;;;;;;;;;17.60;64.80;;;;;;5089919;28;20376;-76
2022/05/30 09:46:32;;;;;;;;;;;16.20;67.30;;;;;;5075064;28;19908;-76
2022/05/30 09:49:02;;;;;;;;;;;18.30;68.50;;;;;;5091068;28;19914;-76
2022/05/30 09:51:29;;;;;;;;;;;19.80;64.80;;;;;;5090782;28;19908;-77
2022/05/30 09:53:55;;;;;;;;;;;20.90;61.10;;;;;;5091185;28;19931;-76
2022/05/30 09:56:21;;;;;;;;;;;19.40;63.90;;;;;;5091379;28;20365;-77
2022/05/30 09:59:06;;;;;;;;;;;21.00;57.40;;;;;;5082139;28;19915;-77
2022/05/30 10:01:34;;;;;;;;;;;21.90;59.30;;;;;;5086404;28;19961;-76
2022/05/30 10:04:12;;;;;;;;;;;21.70;66.60;;;;;;5081908;28;19916;-76
2022/05/30 10:06:38;;;;;;;;;;;20.80;52.20;;;;;;5074705;28;20038;-77
2022/05/30 10:09:15;;;;;;;;;;;22.80;59.00;;;;;;5091014;28;20393;-77
2022/05/30 10:11:41;;;;;;;;;;;22.60;59.00;;;;;;5090165;28;19923;-77
2022/05/30 10:14:20;;;;;;;;;;;21.70;56.00;;;;;;5085560;28;19908;-77
2022/05/30 10:16:46;;;;;;;;;;;23.30;60.70;;;;;;5085052;28;20431;-77
2022/05/30 10:19:22;;;;;;;;;;;22.90;55.60;;;;;;5090589;28;19908;-77
2022/05/30 10:28:15;;;;;;;;;;;17.30;60.80;;;;;;5085530;28;20265;-76
2022/05/30 10:30:47;;;;;;;;;;;17.40;60.70;;;;;;5080442;28;20003;-76
2022/05/30 10:33:18;;;;;;;;;;;18.60;67.00;;;;;;5068855;28;19909;-75
2022/05/30 10:35:44;;;;;;;;;;;18.80;64.00;;;;;;5084336;28;19908;-75
2022/05/30 10:38:15;;;;;;;;;;;18.00;60.60;;;;;;5089998;28;20373;-75
2022/05/30 10:40:52;;;;;;;;;;;16.90;61.70;;;;;;5083479;28;19912;-74
2022/05/30 10:43:23;;;;;;;;;;;16.70;61.80;;;;;;5072573;28;19912;-74
2022/05/30 10:45:57;;;;;;;;;;;18.50;61.50;;;;;;5075008;28;20381;-75
2022/05/30 10:48:33;;;;;;;;;;;18.00;58.90;;;;;;5073247;28;20247;-75
2022/05/30 10:51:11;;;;;;;;;;;18.10;59.70;;;;;;5069708;28;20369;-75
2022/05/30 10:53:40;;;;;;;;;;;19.20;59.60;;;;;;5070144;28;20286;-75
2022/05/30 10:56:19;;;;;;;;;;;20.60;59.10;;;;;;5071110;28;20380;-75
2022/05/30 10:58:49;;;;;;;;;;;19.80;61.30;;;;;;5084708;28;19951;-75
2022/05/30 11:01:24;;;;;;;;;;;21.10;55.70;;;;;;5086086;28;19977;-75
2022/05/30 11:03:56;;;;;;;;;;;21.40;58.20;;;;;;5072781;28;19958;-75
2022/05/30 11:06:27;;;;;;;;;;;21.20;53.60;;;;;;5071399;28;19916;-75
2022/05/30 11:09:03;;;;;;;;;;;21.10;53.50;;;;;;5071110;28;20373;-75
2022/05/30 11:11:34;;;;;;;;;;;21.60;51.70;;;;;;5069914;28;19908;-75
2022/05/30 11:14:03;;;;;;;;;;;21.30;52.20;;;;;;5069300;28;19917;-75
2022/05/30 11:16:54;;;;;;;;;;;22.90;57.80;;;;;;5078851;28;20018;-76
2022/05/30 11:19:23;;;;;;;;;;;22.60;62.30;;;;;;5049877;28;19920;-75
2022/05/30 11:22:01;;;;;;;;;;;22.10;58.00;;;;;;5070108;28;19970;-75
2022/05/30 11:24:27;;;;;;;;;;;23.40;63.60;;;;;;5072355;28;20003;-75
2022/05/30 11:27:08;;;;;;;;;;;23.10;54.10;;;;;;5074574;28;20462;-75
2022/05/30 11:29:48;;;;;;;;;;;22.70;54.80;;;;;;5070863;28;20403;-75
2022/05/30 11:32:30;;;;;;;;;;;21.60;53.60;;;;;;5085732;28;19908;-75
2022/05/30 11:35:05;;;;;;;;;;;21.00;55.00;;;;;;5072227;28;19944;-75
2022/05/30 11:37:49;;;;;;;;;;;19.40;58.80;;;;;;5069524;28;19909;-75
2022/05/30 11:40:20;;;;;;;;;;;19.10;57.80;;;;;;5070558;28;20153;-75
2022/05/30 11:43:01;;;;;;;;;;;19.80;54.30;;;;;;5070649;28;20454;-75
2022/05/30 11:45:35;;;;;;;;;;;21.20;57.90;;;;;;5081818;28;19919;-76
2022/05/30 11:48:05;;;;;;;;;;;21.10;55.40;;;;;;5073416;28;19909;-75
2022/05/30 11:50:49;;;;;;;;;;;21.60;54.70;;;;;;5072232;28;20354;-75
2022/05/30 11:53:27;;;;;;;;;;;20.70;54.60;;;;;;5072945;28;19920;-75
2022/05/30 11:55:55;;;;;;;;;;;21.00;54.90;;;;;;5074514;28;19915;-75
2022/05/30 11:58:26;;;;;;;;;;;20.60;57.40;;;;;;5072588;28;19909;-75
2022/05/30 12:00:52;;;;;;;;;;;21.10;53.50;;;;;;5081286;28;19955;-75
2022/05/30 12:03:36;;;;;;;;;;;21.30;53.30;;;;;;5089642;28;19911;-75
2022/05/30 12:06:06;;;;;;;;;;;21.50;57.30;;;;;;5078388;28;19913;-75
2022/05/30 12:08:51;;;;;;;;;;;23.00;53.40;;;;;;5073946;28;19987;-75
2022/05/30 12:11:31;;;;;;;;;;;23.40;55.10;;;;;;5073173;28;19924;-75
2022/05/30 12:13:57;;;;;;;;;;;22.20;49.20;;;;;;5084168;28;19908;-75
2022/05/30 12:16:22;;;;;;;;;;;22.90;51.90;;;;;;5082466;28;20053;-75
2022/05/30 12:24:37;;;;;;;;;;;22.90;52.10;;;;;;5092888;28;20380;-76
2022/05/30 12:27:12;;;;;;;;;;;23.60;49.60;;;;;;5073371;28;19909;-75
2022/05/30 12:29:37;;;;;;;;;;;23.70;45.30;;;;;;5082181;28;19930;-75
2022/05/30 12:32:24;;;;;;;;;;;25.30;48.80;;;;;;5094043;28;19907;-75
2022/05/30 12:35:00;;;;;;;;;;;24.80;53.00;;;;;;5062140;28;20293;-75
2022/05/30 12:37:44;;;;;;;;;;;23.20;46.00;;;;;;5073614;28;20389;-75
2022/05/30 12:40:12;;;;;;;;;;;20.60;49.60;;;;;;5086808;28;19912;-75
2022/05/30 12:42:45;;;;;;;;;;;20.10;48.90;;;;;;5080593;28;20278;-75
2022/05/30 12:45:42;;;;;;;;;;;18.70;52.60;;;;;;5085037;28;19915;-75
2022/05/30 12:48:17;;;;;;;;;;;18.10;56.40;;;;;;5059343;28;19916;-75
2022/05/30 12:50:44;;;;;;;;;;;16.70;55.70;;;;;;5093242;28;19912;-75
2022/05/30 12:53:10;;;;;;;;;;;16.50;57.10;;;;;;5091382;28;19915;-75
2022/05/30 12:55:39;;;;;;;;;;;17.00;59.20;;;;;;5094128;28;19947;-75
2022/05/30 12:58:05;;;;;;;;;;;17.20;58.10;;;;;;5093554;28;19908;-75
2022/05/30 13:00:40;;;;;;;;;;;17.30;57.40;;;;;;5083707;28;19990;-75
2022/05/30 13:03:11;;;;;;;;;;;18.90;56.10;;;;;;5080286;28;19908;-75
2022/05/30 13:05:38;;;;;;;;;;;24.30;47.90;;;;;;5086723;28;19916;-75
2022/05/30 13:08:22;;;;;;;;;;;26.60;42.20;;;;;;5092744;28;20011;-75
2022/05/30 13:10:52;;;;;;;;;;;27.60;42.70;;;;;;5091207;28;19916;-75
2022/05/30 13:13:25;;;;;;;;;;;27.80;40.30;;;;;;5090277;28;20351;-75
2022/05/30 13:15:54;;;;;;;;;;;26.80;39.00;;;;;;5082488;28;19954;-75
2022/05/30 13:18:21;;;;;;;;;;;26.10;44.10;;;;;;5078136;28;19916;-76
2022/05/30 13:20:49;;;;;;;;;;;25.50;39.30;;;;;;5072615;28;19908;-76
2022/05/30 13:23:16;;;;;;;;;;;22.00;53.00;;;;;;5071052;28;19923;-75
2022/05/30 13:25:47;;;;;;;;;;;19.40;54.20;;;;;;5072489;28;19913;-75
2022/05/30 13:28:23;;;;;;;;;;;21.70;53.30;;;;;;5072280;28;20373;-76
2022/05/30 13:30:49;;;;;;;;;;;23.10;48.60;;;;;;5085617;28;20374;-75
2022/05/30 13:33:25;;;;;;;;;;;20.30;53.00;;;;;;5074143;28;19908;-76
2022/05/30 13:36:00;;;;;;;;;;;24.90;43.50;;;;;;5085382;28;20273;-76
2022/05/30 13:38:29;;;;;;;;;;;25.90;40.00;;;;;;5072396;28;19913;-76
2022/05/30 13:40:55;;;;;;;;;;;27.20;42.90;;;;;;5072336;28;19912;-76
2022/05/30 13:43:30;;;;;;;;;;;27.30;40.40;;;;;;5072285;28;19915;-76
2022/05/30 13:45:57;;;;;;;;;;;28.50;38.70;;;;;;5079084;28;20409;-76
2022/05/30 13:48:22;;;;;;;;;;;29.10;40.50;;;;;;5070980;28;19908;-76
2022/05/30 13:50:48;;;;;;;;;;;27.80;41.40;;;;;;5072483;28;20327;-77
2022/05/30 13:53:14;;;;;;;;;;;28.60;43.40;;;;;;5070476;28;19908;-76
2022/05/30 13:55:50;;;;;;;;;;;28.00;37.90;;;;;;5071602;28;20001;-76
2022/05/30 13:58:16;;;;;;;;;;;26.90;39.10;;;;;;5071949;28;19912;-76
2022/05/30 14:00:42;;;;;;;;;;;27.20;42.00;;;;;;5081430;28;19908;-77
2022/05/30 14:03:08;;;;;;;;;;;27.90;40.00;;;;;;5080315;28;19940;-76
2022/05/30 14:05:38;;;;;;;;;;;27.20;38.20;;;;;;5071400;28;19927;-76
2022/05/30 14:08:06;;;;;;;;;;;27.80;44.10;;;;;;5072052;28;20396;-76
2022/05/30 14:10:37;;;;;;;;;;;27.20;36.50;;;;;;5072284;28;20297;-76
2022/05/30 14:13:02;;;;;;;;;;;26.40;38.50;;;;;;5070811;28;20020;-76
2022/05/30 14:15:33;;;;;;;;;;;27.10;39.20;;;;;;5077446;28;20373;-76
2022/05/30 14:18:19;;;;;;;;;;;26.40;39.20;;;;;;5076886;28;20397;-76
2022/05/30 14:20:47;;;;;;;;;;;26.30;42.80;;;;;;5071727;28;19915;-76
2022/05/30 14:23:15;;;;;;;;;;;25.60;37.90;;;;;;5070300;28;20370;-75
2022/05/30 14:25:46;;;;;;;;;;;22.20;42.20;;;;;;5069594;28;19913;-75
2022/05/30 14:28:19;;;;;;;;;;;19.70;45.80;;;;;;5071241;28;19915;-75
2022/05/30 14:30:45;;;;;;;;;;;18.40;50.10;;;;;;5078508;28;19912;-75
2022/05/30 14:33:10;;;;;;;;;;;18.00;48.50;;;;;;5076263;28;20336;-75
2022/05/30 14:35:38;;;;;;;;;;;17.70;54.20;;;;;;5071195;28;19912;-75
2022/05/30 14:38:05;;;;;;;;;;;17.50;51.60;;;;;;5071955;28;19908;-75
2022/05/30 14:40:38;;;;;;;;;;;17.60;53.30;;;;;;5081356;28;20374;-75
2022/05/30 14:43:22;;;;;;;;;;;21.30;50.50;;;;;;5071614;28;19913;-75
2022/05/30 14:45:59;;;;;;;;;;;22.90;45.90;;;;;;5073004;28;19916;-75
2022/05/30 14:48:24;;;;;;;;;;;22.80;45.70;;;;;;5077227;28;19955;-75
2022/05/30 14:50:51;;;;;;;;;;;24.50;47.90;;;;;;5074037;28;19955;-75
2022/05/30 14:53:19;;;;;;;;;;;24.30;46.70;;;;;;5070239;28;19919;-77
2022/05/30 14:55:46;;;;;;;;;;;22.20;46.70;;;;;;5074998;28;20368;-76